Time;durP1;ratioP1;P1;durP2;ratioP2;P2;SDS_P1;SDS_P2;PMS_P1;PMS_P2;Temp;Humidity;BMP_temperature;BMP_pressure;BME280_temperature;BME280_humidity;BME280_pressure;Samples;Min_cycle;Max_cycle;Signal;HPM_P1;HPM_P2
2023/12/08 00:00:07;;;;;;;;;18.25;18.25;;;;;10.89;100.00;99906.00;2087858;28;46632;-54
2023/12/08 00:01:07;;;;;;;;;18.25;16.75;;;;;10.89;100.00;99903.34;2087533;28;46473;-51
2023/12/08 00:02:07;;;;;;;;;15.33;14.33;;;;;10.88;100.00;99892.78;2087877;28;46736;-53
2023/12/08 00:03:08;;;;;;;;;18.33;17.00;;;;;10.90;100.00;99891.81;2087779;28;46404;-52
2023/12/08 00:04:08;;;;;;;;;16.33;16.33;;;;;10.95;100.00;99898.75;2085928;28;46511;-54
2023/12/08 00:05:09;;;;;;;;;16.67;15.67;;;;;10.96;100.00;99889.88;2083970;28;46720;-54
2023/12/08 00:06:10;;;;;;;;;15.75;15.75;;;;;10.98;100.00;99896.00;2087816;28;46358;-53
2023/12/08 00:07:10;;;;;;;;;16.80;16.80;;;;;10.97;100.00;99889.81;2082614;28;46348;-55
2023/12/08 00:08:11;;;;;;;;;21.25;21.00;;;;;10.97;100.00;99895.13;2088349;28;45794;-55
2023/12/08 00:09:12;;;;;;;;;27.75;24.50;;;;;10.97;100.00;99896.91;2088511;28;45692;-55
2023/12/08 00:10:12;;;;;;;;;41.00;35.00;;;;;10.98;100.00;99902.16;2086540;28;46374;-53
2023/12/08 00:11:13;;;;;;;;;30.75;28.50;;;;;10.93;100.00;99893.50;2087810;28;46544;-53
2023/12/08 00:12:13;;;;;;;;;21.00;18.00;;;;;10.90;100.00;99902.44;2087483;28;46287;-53
2023/12/08 00:13:13;;;;;;;;;12.00;12.00;;;;;10.90;100.00;99897.13;2087968;28;46789;-52
2023/12/08 00:14:14;;;;;;;;;60.50;49.50;;;;;10.89;100.00;99890.06;2089011;28;46806;-51
2023/12/08 00:15:14;;;;;;;;;50.50;41.00;;;;;10.89;100.00;99898.03;2088499;28;46908;-54
2023/12/08 00:16:14;;;;;;;;;28.50;27.25;;;;;10.92;100.00;99899.72;2089117;28;46379;-52
2023/12/08 00:17:15;;;;;;;;;30.50;30.00;;;;;10.91;100.00;99896.19;2079328;28;46558;-53
2023/12/08 00:18:15;;;;;;;;;23.50;23.50;;;;;10.93;100.00;99901.47;2079876;28;46547;-55
2023/12/08 00:19:15;;;;;;;;;23.75;21.00;;;;;10.97;100.00;99896.91;2088965;28;46233;-53
2023/12/08 00:20:16;;;;;;;;;23.25;22.25;;;;;10.99;100.00;99889.75;2089089;28;47459;-51
2023/12/08 00:21:17;;;;;;;;;24.75;24.75;;;;;10.99;100.00;99895.06;2087347;28;46743;-50
2023/12/08 00:22:17;;;;;;;;;25.25;23.25;;;;;11.00;100.00;99896.78;2088721;28;46219;-49
2023/12/08 00:23:17;;;;;;;;;28.25;27.00;;;;;11.00;100.00;99913.59;2088803;28;46284;-52
2023/12/08 00:24:18;;;;;;;;;27.00;25.25;;;;;11.01;100.00;99906.50;2089258;28;46262;-51
2023/12/08 00:25:18;;;;;;;;;32.50;32.25;;;;;11.00;100.00;99910.06;2089078;28;46694;-52
2023/12/08 00:26:18;;;;;;;;;29.75;27.75;;;;;11.01;100.00;99911.78;2089292;28;45594;-53
2023/12/08 00:27:19;;;;;;;;;50.50;42.25;;;;;11.02;100.00;99921.50;2089125;28;46702;-51
2023/12/08 00:28:19;;;;;;;;;51.50;42.75;;;;;11.01;100.00;99919.75;2089221;28;46609;-53
2023/12/08 00:29:19;;;;;;;;;24.25;23.50;;;;;11.02;100.00;99910.88;2089101;28;46296;-52
2023/12/08 00:30:20;;;;;;;;;40.00;35.50;;;;;11.02;100.00;99909.09;2088878;28;46025;-51
2023/12/08 00:31:20;;;;;;;;;32.75;31.00;;;;;11.04;100.00;99915.19;2088892;28;46298;-51
2023/12/08 00:32:20;;;;;;;;;25.75;23.75;;;;;11.05;100.00;99909.00;2089382;28;45681;-54
2023/12/08 00:33:21;;;;;;;;;18.25;17.25;;;;;11.05;100.00;99910.75;2089140;28;46689;-54
2023/12/08 00:34:21;;;;;;;;;49.75;42.00;;;;;11.06;100.00;99920.47;2088942;28;46200;-55
2023/12/08 00:35:24;;;;;;;;;29.00;25.50;;;;;11.06;100.00;99918.69;2089177;28;46558;-48
2023/12/08 00:36:24;;;;;;;;;27.80;24.00;;;;;11.07;100.00;99917.78;2088239;28;46825;-53
2023/12/08 00:37:25;;;;;;;;;23.75;21.00;;;;;11.08;100.00;99927.47;2089342;28;46605;-52
2023/12/08 00:38:25;;;;;;;;;21.75;20.75;;;;;11.08;100.00;99919.50;2088932;28;46670;-52
2023/12/08 00:39:26;;;;;;;;;16.67;15.00;;;;;11.10;100.00;99932.72;2084750;28;46278;-53
2023/12/08 00:40:26;;;;;;;;;18.00;16.00;;;;;11.09;100.00;99923.00;2089456;28;46216;-51
2023/12/08 00:41:27;;;;;;;;;28.00;25.50;;;;;11.12;100.00;99915.78;2088587;28;46493;-53
2023/12/08 00:42:27;;;;;;;;;20.00;18.80;;;;;11.12;100.00;99913.13;2088837;28;45444;-51
2023/12/08 00:43:28;;;;;;;;;24.75;19.25;;;;;11.15;100.00;99920.13;2088587;28;46787;-51
2023/12/08 00:44:28;;;;;;;;;28.25;27.25;;;;;11.14;100.00;99913.94;2088822;28;46172;-52
2023/12/08 00:45:28;;;;;;;;;38.75;33.50;;;;;11.13;100.00;99914.00;2088902;28;46672;-52
2023/12/08 00:46:29;;;;;;;;;51.00;43.00;;;;;11.16;100.00;99922.72;2089356;28;46500;-52
2023/12/08 00:47:30;;;;;;;;;25.80;25.00;;;;;11.18;100.00;99915.59;2088900;28;46548;-50
2023/12/08 00:48:30;;;;;;;;;53.75;44.50;;;;;11.19;100.00;99929.72;2089126;28;46963;-54
2023/12/08 00:49:31;;;;;;;;;41.25;35.75;;;;;11.19;100.00;99925.28;2088564;28;46573;-55
2023/12/08 00:50:31;;;;;;;;;48.50;39.75;;;;;11.21;100.00;99927.88;2089143;28;46382;-54
2023/12/08 00:51:31;;;;;;;;;36.75;32.25;;;;;11.19;100.00;99921.75;2088648;28;46329;-53
2023/12/08 00:52:32;;;;;;;;;33.00;30.50;;;;;11.20;100.00;99932.31;2088577;28;46629;-51
2023/12/08 00:53:32;;;;;;;;;32.50;28.25;;;;;11.22;100.00;99928.75;2088919;28;46602;-51
2023/12/08 00:54:32;;;;;;;;;22.50;21.25;;;;;11.22;100.00;99936.72;2089015;28;46105;-54
2023/12/08 00:55:33;;;;;;;;;22.00;19.00;;;;;11.23;100.00;99934.00;2088278;28;46218;-50
2023/12/08 00:56:33;;;;;;;;;27.00;23.50;;;;;11.23;100.00;99934.00;2084768;28;46831;-52
2023/12/08 00:57:33;;;;;;;;;25.00;24.50;;;;;11.25;100.00;99929.50;2084554;28;45948;-53
2023/12/08 00:58:34;;;;;;;;;21.50;20.00;;;;;11.25;100.00;99925.97;2089113;28;46212;-54
2023/12/08 00:59:34;;;;;;;;;28.25;28.00;;;;;11.24;100.00;99922.44;2088578;28;46823;-54
2023/12/08 01:00:36;;;;;;;;;33.00;29.00;;;;;11.25;100.00;99920.66;2088786;28;46607;-54
2023/12/08 01:01:36;;;;;;;;;37.20;34.20;;;;;11.25;100.00;99918.00;2086918;28;46133;-51
2023/12/08 01:02:37;;;;;;;;;32.25;31.75;;;;;11.23;100.00;99919.84;2087700;28;46694;-54
2023/12/08 01:03:37;;;;;;;;;21.00;20.00;;;;;11.25;100.00;99923.31;2087658;28;46636;-53
2023/12/08 01:04:37;;;;;;;;;16.67;16.67;;;;;11.25;100.00;99923.31;2087845;28;46524;-54
2023/12/08 01:05:38;;;;;;;;;23.00;21.50;;;;;11.26;100.00;99925.03;2088805;28;46668;-54
2023/12/08 01:06:38;;;;;;;;;20.75;20.25;;;;;11.29;100.00;99924.91;2089047;28;46218;-54
2023/12/08 01:07:39;;;;;;;;;17.67;16.00;;;;;11.26;100.00;99925.03;2089396;28;45896;-52
2023/12/08 01:08:39;;;;;;;;;18.50;17.00;;;;;11.23;100.00;99926.03;2088413;28;46413;-53
2023/12/08 01:09:40;;;;;;;;;26.75;22.25;;;;;11.29;100.00;99935.53;2088295;28;46243;-52
2023/12/08 01:10:40;;;;;;;;;18.50;18.50;;;;;11.26;100.00;99919.72;2088833;28;46829;-52
2023/12/08 01:11:40;;;;;;;;;22.00;20.00;;;;;11.30;100.00;99927.50;2094321;28;46375;-53
2023/12/08 01:12:41;;;;;;;;;19.00;18.33;;;;;11.25;100.00;99931.28;2092830;28;45711;-51
2023/12/08 01:13:41;;;;;;;;;29.00;24.00;;;;;11.24;100.00;99927.75;2084163;28;46639;-53
2023/12/08 01:14:41;;;;;;;;;20.75;19.50;;;;;11.25;100.00;99931.28;2085487;28;46860;-53
2023/12/08 01:15:41;;;;;;;;;23.50;20.75;;;;;11.24;100.00;99927.75;2087057;28;46692;-51
2023/12/08 01:16:42;;;;;;;;;20.25;19.25;;;;;11.25;100.00;99925.97;2088982;28;46856;-53
2023/12/08 01:17:43;;;;;;;;;16.00;16.00;;;;;11.24;100.00;99930.41;2089063;28;45727;-54
2023/12/08 01:18:43;;;;;;;;;17.00;17.00;;;;;11.30;100.00;99931.97;2088637;28;46667;-53
2023/12/08 01:19:43;;;;;;;;;22.75;19.00;;;;;11.28;100.00;99929.38;2089413;28;45770;-52
2023/12/08 01:20:44;;;;;;;;;21.00;18.00;;;;;11.26;100.00;99925.91;2089502;28;46533;-53
2023/12/08 01:21:44;;;;;;;;;19.75;15.25;;;;;11.26;100.00;99931.22;2088816;28;46482;-53
2023/12/08 01:22:44;;;;;;;;;16.75;16.50;;;;;11.25;100.00;99929.50;2088938;28;46856;-54
2023/12/08 01:23:45;;;;;;;;;13.33;13.33;;;;;11.26;100.00;99931.22;2088758;28;46727;-49
2023/12/08 01:24:45;;;;;;;;;19.50;18.50;;;;;11.26;100.00;99944.50;2088910;28;46239;-52
2023/12/08 01:25:45;;;;;;;;;19.25;18.25;;;;;11.26;100.00;99946.28;2088419;28;46349;-52
2023/12/08 01:26:46;;;;;;;;;28.00;26.25;;;;;11.28;100.00;99947.97;2088366;28;46292;-53
2023/12/08 01:27:46;;;;;;;;;22.50;22.50;;;;;11.28;100.00;99950.63;2088806;28;46894;-56
2023/12/08 01:28:46;;;;;;;;;35.75;33.25;;;;;11.29;100.00;99946.16;2088554;28;46656;-53
2023/12/08 01:29:47;;;;;;;;;23.00;19.50;;;;;11.30;100.00;99953.22;2084279;28;46341;-54
2023/12/08 01:30:47;;;;;;;;;22.00;21.00;;;;;11.30;100.00;99942.59;2089288;28;45988;-52
2023/12/08 01:31:47;;;;;;;;;15.33;15.00;;;;;11.31;100.00;99949.66;2088206;28;48183;-54
2023/12/08 01:32:48;;;;;;;;;15.00;15.00;;;;;11.30;100.00;99947.91;2088873;28;46852;-53
2023/12/08 01:33:48;;;;;;;;;20.75;18.50;;;;;11.33;100.00;99942.50;2089226;28;47034;-53
2023/12/08 01:34:48;;;;;;;;;22.50;17.75;;;;;11.35;100.00;99954.78;2088410;28;46332;-54
2023/12/08 01:35:49;;;;;;;;;17.00;14.33;;;;;11.35;100.00;99953.94;2083681;28;45496;-50
2023/12/08 01:36:49;;;;;;;;;15.00;15.00;;;;;11.35;100.00;99948.63;2077026;28;46476;-54
2023/12/08 01:37:49;;;;;;;;;17.33;15.00;;;;;11.36;100.00;99947.69;2078983;28;46159;-55
2023/12/08 01:38:49;;;;;;;;;12.67;12.67;;;;;11.37;100.00;99946.75;2088734;28;46302;-50
2023/12/08 01:39:50;;;;;;;;;15.00;13.33;;;;;11.38;100.00;99951.16;2088593;28;46739;-54
2023/12/08 01:40:50;;;;;;;;;15.33;14.00;;;;;11.37;100.00;99954.75;2088804;28;46287;-54
2023/12/08 01:41:51;;;;;;;;;15.67;14.33;;;;;11.36;100.00;99943.25;2088580;28;47251;-55
2023/12/08 01:42:51;;;;;;;;;18.33;16.33;;;;;11.38;100.00;99952.03;2088289;28;46291;-53
2023/12/08 01:43:51;;;;;;;;;14.00;12.67;;;;;11.39;100.00;99955.53;2088771;28;46248;-53
2023/12/08 01:44:52;;;;;;;;;13.33;13.33;;;;;11.39;100.00;99950.22;2088396;28;47184;-55
2023/12/08 01:45:56;;;;;;;;;16.67;15.67;;;;;11.41;100.00;99956.34;2088566;28;45102;-52
2023/12/08 01:46:57;;;;;;;;;15.75;15.75;;;;;11.41;100.00;99962.53;2084431;28;46396;-54
2023/12/08 01:47:57;;;;;;;;;17.33;15.67;;;;;11.42;100.00;99952.75;2086239;28;46630;-55
2023/12/08 01:48:58;;;;;;;;;17.33;17.00;;;;;11.41;100.00;99951.91;2087715;28;46582;-56
2023/12/08 01:49:59;;;;;;;;;12.50;12.25;;;;;11.41;100.00;99957.22;2083947;28;46375;-55
2023/12/08 01:51:01;;;;;;;;;17.00;16.33;;;;;11.43;100.00;99949.19;2084396;28;46510;-54
2023/12/08 01:52:02;;;;;;;;;16.25;14.75;;;;;11.47;100.00;99957.00;2080963;28;46861;-54
2023/12/08 01:53:03;;;;;;;;;15.50;13.50;;;;;11.52;100.00;99958.59;2088441;28;46928;-54
2023/12/08 01:54:05;;;;;;;;;14.50;14.50;;;;;11.50;100.00;99956.88;2087028;28;46963;-50
2023/12/08 01:55:06;;;;;;;;;12.75;12.75;;;;;11.48;100.00;99957.88;2080444;28;46836;-50
2023/12/08 01:56:08;;;;;;;;;12.00;12.00;;;;;11.49;100.00;99963.13;2087448;28;46472;-54
2023/12/08 01:57:08;;;;;;;;;11.75;10.75;;;;;11.50;100.00;99959.53;2087768;28;46562;-53
2023/12/08 01:58:09;;;;;;;;;11.33;10.33;;;;;11.49;100.00;99959.59;2079710;28;46498;-54
2023/12/08 01:59:11;;;;;;;;;12.25;11.00;;;;;11.49;100.00;99959.59;2086380;28;45175;-51
2023/12/08 02:00:12;;;;;;;;;19.75;14.75;;;;;11.49;100.00;99964.91;2088319;28;46713;-54
2023/12/08 02:01:13;;;;;;;;;12.00;10.50;;;;;11.48;100.00;99958.72;2088328;28;46812;-54
2023/12/08 02:02:14;;;;;;;;;10.00;9.50;;;;;11.48;100.00;99958.72;2088326;28;46415;-55
2023/12/08 02:03:15;;;;;;;;;10.00;9.67;;;;;11.49;100.00;99962.25;2088318;28;46284;-54
2023/12/08 02:04:16;;;;;;;;;11.25;11.00;;;;;11.49;100.00;99968.44;2083452;28;46401;-54
2023/12/08 02:05:17;;;;;;;;;15.00;14.33;;;;;11.50;100.00;99969.28;2081928;28;46401;-53
2023/12/08 02:06:18;;;;;;;;;13.25;13.25;;;;;11.49;100.00;99968.44;2088791;28;46323;-50
2023/12/08 02:07:18;;;;;;;;;10.33;10.33;;;;;11.50;100.00;99967.50;2088639;28;46485;-53
2023/12/08 02:08:20;;;;;;;;;16.00;14.00;;;;;11.50;100.00;99967.50;2086132;28;46381;-54
2023/12/08 02:09:20;;;;;;;;;10.25;10.25;;;;;11.52;100.00;99969.22;2088401;28;46661;-54
2023/12/08 02:10:21;;;;;;;;;13.00;11.00;;;;;11.52;100.00;99967.44;2091897;28;46478;-51
2023/12/08 02:11:21;;;;;;;;;11.00;10.00;;;;;11.54;100.00;99970.03;2088328;28;46509;-55
2023/12/08 02:12:22;;;;;;;;;10.00;10.00;;;;;11.55;100.00;99969.97;2088729;28;46645;-53
2023/12/08 02:13:23;;;;;;;;;14.00;11.00;;;;;11.55;100.00;99969.97;2087817;28;46956;-54
2023/12/08 02:14:24;;;;;;;;;9.00;9.00;;;;;11.55;100.00;99967.31;2086199;28;46624;-53
2023/12/08 02:15:24;;;;;;;;;15.67;14.67;;;;;11.57;100.00;99975.25;2088797;28;46791;-54
2023/12/08 02:16:32;;;;;;;;;15.00;12.00;;;;;11.57;100.00;99977.91;2088684;28;45792;-55
2023/12/08 02:17:39;;;;;;;;;10.00;10.00;;;;;11.57;100.00;99981.44;2080313;28;46611;-54
2023/12/08 02:18:40;;;;;;;;;14.50;12.00;;;;;11.58;100.00;99977.84;2086991;28;46871;-54
2023/12/08 02:19:41;;;;;;;;;6.75;6.50;;;;;11.58;100.00;99977.84;2088093;28;46550;-53
2023/12/08 02:20:42;;;;;;;;;9.33;7.00;;;;;11.60;100.00;99991.09;2087896;28;46853;-52
2023/12/08 02:21:42;;;;;;;;;10.00;9.75;;;;;11.59;100.00;99989.34;2088493;28;47221;-54
2023/12/08 02:22:42;;;;;;;;;10.00;10.00;;;;;11.59;100.00;99984.03;2088988;28;46595;-53
2023/12/08 02:23:48;;;;;;;;;8.33;8.33;;;;;11.61;100.00;99995.47;2087949;28;46296;-54
2023/12/08 02:24:48;;;;;;;;;9.00;9.00;;;;;11.60;100.00;99991.94;2086507;28;46621;-48
2023/12/08 02:25:48;;;;;;;;;9.33;9.00;;;;;11.61;100.00;99992.81;2088472;28;46209;-50
2023/12/08 02:26:49;;;;;;;;;4.00;4.00;;;;;11.61;100.00;99995.47;2088937;28;46133;-53
2023/12/08 02:27:50;;;;;;;;;9.75;9.00;;;;;11.61;100.00;99991.03;2088346;28;46624;-53
2023/12/08 02:28:50;;;;;;;;;14.00;9.00;;;;;11.61;100.00;99996.34;2088383;28;46610;-55
2023/12/08 02:29:51;;;;;;;;;6.67;6.67;;;;;11.62;100.00;99997.19;2088117;28;45831;-52
2023/12/08 02:30:56;;;;;;;;;10.00;10.00;;;;;11.63;100.00;99990.97;2088452;28;46808;-52
2023/12/08 02:32:05;;;;;;;;;8.50;8.25;;;;;11.64;100.00;99987.38;2087485;28;46905;-53
2023/12/08 02:33:16;;;;;;;;;7.25;7.25;;;;;11.64;100.00;99990.91;2087817;28;46144;-52
2023/12/08 02:34:17;;;;;;;;;11.75;9.75;;;;;11.64;100.00;99987.38;2088542;28;46776;-54
2023/12/08 02:35:20;;;;;;;;;9.00;9.00;;;;;11.64;100.00;99992.69;2086723;28;46511;-52
2023/12/08 02:36:20;;;;;;;;;8.25;8.00;;;;;11.65;100.00;99992.63;2088338;28;46337;-52
2023/12/08 02:37:22;;;;;;;;;7.00;7.00;;;;;11.65;100.00;99991.75;2088665;28;46800;-53
2023/12/08 02:38:24;;;;;;;;;9.00;9.00;;;;;11.68;100.00;99989.84;2088424;28;46377;-55
2023/12/08 02:39:26;;;;;;;;;8.25;8.25;;;;;11.67;100.00;99987.25;2086286;28;46307;-53
2023/12/08 02:40:27;;;;;;;;;9.00;9.00;;;;;11.67;100.00;99984.59;2082757;28;46271;-52
2023/12/08 02:41:27;;;;;;;;;5.25;5.25;;;;;11.66;100.00;99991.69;2084851;28;46674;-55
2023/12/08 02:42:28;;;;;;;;;8.00;7.33;;;;;11.69;100.00;99986.28;2088633;28;46783;-54
2023/12/08 02:43:28;;;;;;;;;9.33;9.33;;;;;11.68;100.00;99989.84;2070352;28;46405;-54
2023/12/08 02:44:28;;;;;;;;;9.33;9.33;;;;;11.67;100.00;99990.78;2070551;28;46437;-52
2023/12/08 02:45:29;;;;;;;;;7.67;7.67;;;;;11.68;100.00;99987.19;2088111;28;46248;-52
2023/12/08 02:46:29;;;;;;;;;9.67;9.67;;;;;11.71;100.00;99988.91;2088328;28;46594;-52
2023/12/08 02:47:30;;;;;;;;;7.33;7.33;;;;;11.70;100.00;99980.06;2087890;28;46759;-56
2023/12/08 02:48:30;;;;;;;;;10.00;9.00;;;;;11.71;100.00;99976.47;2088457;28;46634;-51
2023/12/08 02:49:30;;;;;;;;;11.00;9.33;;;;;11.72;100.00;99975.53;2088254;28;46620;-50
2023/12/08 02:50:30;;;;;;;;;9.67;8.67;;;;;11.72;100.00;99970.22;2088205;28;46857;-54
2023/12/08 02:51:31;;;;;;;;;8.00;8.00;;;;;11.73;100.00;99985.25;2088387;28;46896;-53
2023/12/08 02:52:31;;;;;;;;;8.00;7.33;;;;;11.73;100.00;99977.28;2088131;28;45185;-53
2023/12/08 02:53:31;;;;;;;;;6.00;6.00;;;;;11.73;100.00;99984.38;2088481;28;46296;-55
2023/12/08 02:54:32;;;;;;;;;9.00;9.00;;;;;11.75;100.00;99982.53;2087841;28;46479;-52
2023/12/08 02:55:32;;;;;;;;;8.00;8.00;;;;;11.75;100.00;99982.53;2087528;28;45482;-52
2023/12/08 02:56:33;;;;;;;;;10.00;10.00;;;;;11.76;100.00;99976.28;2085247;28;46300;-53
2023/12/08 02:57:33;;;;;;;;;6.67;6.67;;;;;11.75;100.00;99979.88;2070271;28;46640;-53
2023/12/08 02:58:34;;;;;;;;;7.33;6.00;;;;;11.77;100.00;99985.97;2071156;28;46406;-52
2023/12/08 02:59:34;;;;;;;;;9.00;8.00;;;;;11.77;100.00;99988.66;2088415;28;46885;-51
2023/12/08 03:00:35;;;;;;;;;10.33;8.33;;;;;11.77;100.00;99989.50;2088027;28;46763;-49
2023/12/08 03:01:35;;;;;;;;;7.33;7.33;;;;;11.80;100.00;99985.91;2088349;28;46163;-51
2023/12/08 03:02:35;;;;;;;;;7.67;7.67;;;;;11.79;100.00;99981.50;2087892;28;46166;-50
2023/12/08 03:03:36;;;;;;;;;8.33;8.33;;;;;11.79;100.00;99985.03;2088130;28;46899;-51
2023/12/08 03:04:36;;;;;;;;;7.67;7.67;;;;;11.80;100.00;99983.22;2088178;28;46757;-53
2023/12/08 03:05:36;;;;;;;;;9.67;9.67;;;;;11.80;100.00;99983.22;2088082;28;45340;-53
2023/12/08 03:06:37;;;;;;;;;8.00;8.00;;;;;11.79;100.00;99976.19;2089174;28;46472;-51
2023/12/08 03:07:37;;;;;;;;;7.00;7.00;;;;;11.82;100.00;99978.75;2087420;28;46474;-53
2023/12/08 03:08:38;;;;;;;;;7.67;7.67;;;;;11.83;100.00;99980.47;2088166;28;46572;-49
2023/12/08 03:09:38;;;;;;;;;10.00;9.00;;;;;11.84;100.00;99978.69;2088108;28;46540;-53
2023/12/08 03:10:39;;;;;;;;;9.00;9.00;;;;;11.86;100.00;99984.81;2087576;28;48068;-52
2023/12/08 03:11:39;;;;;;;;;9.00;9.00;;;;;11.87;100.00;99981.22;2078677;28;46324;-51
2023/12/08 03:12:39;;;;;;;;;8.67;8.67;;;;;11.86;100.00;99983.03;2075949;28;46233;-51
2023/12/08 03:13:40;;;;;;;;;9.00;9.00;;;;;11.89;100.00;99974.91;2087283;28;46571;-52
2023/12/08 03:14:40;;;;;;;;;9.67;8.00;;;;;11.92;100.00;99980.09;2087705;28;46502;-54
2023/12/08 03:15:40;;;;;;;;;10.00;9.67;;;;;11.93;100.00;99968.53;2087807;28;46951;-55
2023/12/08 03:16:41;;;;;;;;;7.00;7.00;;;;;11.91;100.00;99962.41;2087947;28;46689;-50
2023/12/08 03:17:42;;;;;;;;;7.00;7.00;;;;;11.92;100.00;99950.84;2088052;28;46184;-53
2023/12/08 03:18:42;;;;;;;;;13.25;10.25;;;;;11.93;100.00;99965.03;2088317;28;45129;-50
2023/12/08 03:19:43;;;;;;;;;8.00;7.00;;;;;11.93;100.00;99957.91;2088009;28;46385;-53
2023/12/08 03:20:43;;;;;;;;;10.00;10.00;;;;;11.92;100.00;99969.47;2088436;28;46184;-54
2023/12/08 03:21:43;;;;;;;;;9.00;9.00;;;;;11.93;100.00;99970.34;2087836;28;46389;-50
2023/12/08 03:22:44;;;;;;;;;11.33;9.67;;;;;11.94;100.00;99966.75;2088158;28;46271;-55
2023/12/08 03:23:44;;;;;;;;;10.67;9.00;;;;;11.93;100.00;99968.53;2087448;28;46287;-51
2023/12/08 03:24:44;;;;;;;;;8.33;8.33;;;;;11.94;100.00;99967.66;2087069;28;46487;-53
2023/12/08 03:25:45;;;;;;;;;9.67;9.67;;;;;11.95;100.00;99971.16;2087793;28;46455;-50
2023/12/08 03:26:46;;;;;;;;;9.67;9.67;;;;;11.95;100.00;99968.50;2088323;28;46209;-53
2023/12/08 03:27:46;;;;;;;;;9.00;9.00;;;;;11.92;100.00;99974.78;2087826;28;46588;-53
2023/12/08 03:28:46;;;;;;;;;11.00;9.67;;;;;11.92;100.00;99976.59;2087082;28;46220;-54
2023/12/08 03:29:47;;;;;;;;;8.33;8.33;;;;;11.93;100.00;99979.19;2086550;28;46809;-51
2023/12/08 03:30:47;;;;;;;;;7.00;7.00;;;;;11.93;100.00;99978.31;2088149;28;46409;-55
2023/12/08 03:31:47;;;;;;;;;8.00;6.00;;;;;11.94;100.00;99978.28;2087524;28;46552;-48
2023/12/08 03:32:48;;;;;;;;;8.67;8.00;;;;;11.96;100.00;99980.88;2088045;28;46687;-53
2023/12/08 03:33:48;;;;;;;;;9.00;7.33;;;;;11.96;100.00;99980.88;2088123;28;46839;-54
2023/12/08 03:34:48;;;;;;;;;11.33;8.67;;;;;11.98;100.00;99981.69;2087402;28;46068;-50
2023/12/08 03:35:49;;;;;;;;;7.67;7.67;;;;;11.97;100.00;99991.44;2087480;28;46055;-54
2023/12/08 03:36:49;;;;;;;;;8.67;8.00;;;;;11.95;100.00;99988.00;2088151;28;46604;-53
2023/12/08 03:37:49;;;;;;;;;10.00;9.00;;;;;11.98;100.00;99985.19;2087854;28;46306;-52
2023/12/08 03:38:50;;;;;;;;;10.00;8.00;;;;;12.00;100.00;99993.13;2087908;28;46459;-50
2023/12/08 03:39:50;;;;;;;;;9.67;8.33;;;;;12.02;100.00;99989.47;2078542;28;46548;-52
2023/12/08 03:40:51;;;;;;;;;11.67;10.67;;;;;12.06;100.00;99992.84;2078485;28;46326;-50
2023/12/08 03:41:51;;;;;;;;;9.67;9.00;;;;;12.09;100.00;100000.75;2086939;28;47027;-54
2023/12/08 03:42:51;;;;;;;;;8.67;6.00;;;;;12.10;100.00;99996.28;2087338;28;46556;-52
2023/12/08 03:43:52;;;;;;;;;7.00;7.00;;;;;12.11;100.00;100006.84;2087975;28;46690;-53
2023/12/08 03:44:52;;;;;;;;;6.33;6.33;;;;;12.06;100.00;100003.50;2088077;28;46721;-54
2023/12/08 03:45:52;;;;;;;;;7.00;7.00;;;;;12.07;100.00;100006.13;2084818;28;46563;-51
2023/12/08 03:46:53;;;;;;;;;10.33;9.00;;;;;12.03;100.00;100006.28;2087208;28;46425;-50
2023/12/08 03:47:53;;;;;;;;;9.00;9.00;;;;;12.06;100.00;100000.84;2084083;28;46197;-54
2023/12/08 03:48:53;;;;;;;;;8.33;7.33;;;;;12.03;100.00;100003.63;2085482;28;46870;-53
2023/12/08 03:49:53;;;;;;;;;8.67;7.33;;;;;12.06;100.00;100007.03;2089355;28;46887;-51
2023/12/08 03:50:54;;;;;;;;;8.33;8.33;;;;;12.08;100.00;100010.50;2087110;28;46303;-51
2023/12/08 03:51:54;;;;;;;;;12.67;9.00;;;;;12.12;100.00;100013.91;2089376;28;46517;-54
2023/12/08 03:52:55;;;;;;;;;7.00;6.00;;;;;12.12;100.00;100008.59;2089761;28;45639;-49
2023/12/08 03:53:56;;;;;;;;;10.25;8.00;;;;;12.13;100.00;100012.13;2089237;28;46415;-51
2023/12/08 03:54:56;;;;;;;;;11.67;11.67;;;;;12.12;100.00;100010.38;2089546;28;46220;-51
2023/12/08 03:55:57;;;;;;;;;9.00;8.33;;;;;12.14;100.00;100013.84;2089420;28;46912;-54
2023/12/08 03:56:58;;;;;;;;;8.33;8.33;;;;;12.13;100.00;100012.97;2089564;28;46563;-54
2023/12/08 03:57:58;;;;;;;;;7.25;7.25;;;;;12.14;100.00;100024.50;2071737;28;46288;-54
2023/12/08 03:58:58;;;;;;;;;7.33;5.33;;;;;12.15;100.00;100026.22;2071892;28;45766;-53
2023/12/08 03:59:59;;;;;;;;;7.00;7.00;;;;;12.15;100.00;100028.88;2096186;28;46229;-53
2023/12/08 04:00:59;;;;;;;;;12.00;8.33;;;;;12.17;100.00;100032.34;2092990;28;46652;-55
2023/12/08 04:01:59;;;;;;;;;12.67;10.00;;;;;12.17;100.00;100037.66;2089092;28;46322;-51
2023/12/08 04:03:00;;;;;;;;;12.00;9.00;;;;;12.17;100.00;100035.88;2087322;28;46203;-53
2023/12/08 04:04:00;;;;;;;;;7.33;7.33;;;;;12.18;100.00;100039.38;2088438;28;46534;-52
2023/12/08 04:05:00;;;;;;;;;13.33;11.00;;;;;12.20;100.00;100045.53;2089324;28;46870;-53
2023/12/08 04:06:01;;;;;;;;;7.33;7.33;;;;;12.20;100.00;100048.19;2089290;28;46238;-52
2023/12/08 04:07:02;;;;;;;;;8.67;8.67;;;;;12.21;100.00;100055.25;2089086;28;46274;-52
2023/12/08 04:08:04;;;;;;;;;8.50;6.75;;;;;12.21;100.00;100044.63;2089460;28;46314;-50
2023/12/08 04:09:05;;;;;;;;;8.75;8.00;;;;;12.18;100.00;100037.59;2085651;28;46807;-52
2023/12/08 04:10:06;;;;;;;;;9.00;8.67;;;;;12.18;100.00;100032.28;2089284;28;47488;-53
2023/12/08 04:11:06;;;;;;;;;8.67;8.33;;;;;12.17;100.00;100042.97;2063351;28;46447;-53
2023/12/08 04:12:06;;;;;;;;;10.00;8.00;;;;;12.18;100.00;100042.03;2070361;28;46781;-50
2023/12/08 04:13:07;;;;;;;;;9.67;7.00;;;;;12.16;100.00;100039.44;2089280;28;46579;-52
2023/12/08 04:14:07;;;;;;;;;10.67;9.67;;;;;12.17;100.00;100049.16;2089352;28;46672;-52
2023/12/08 04:15:08;;;;;;;;;7.00;6.00;;;;;12.17;100.00;100050.97;2089135;28;46377;-50
2023/12/08 04:16:09;;;;;;;;;10.00;9.00;;;;;12.17;100.00;100049.16;2088821;28;46539;-52
2023/12/08 04:17:09;;;;;;;;;8.50;8.00;;;;;12.16;100.00;100049.22;2089350;28;46413;-51
2023/12/08 04:18:10;;;;;;;;;9.00;9.00;;;;;12.18;100.00;100052.69;2089385;28;46466;-55
2023/12/08 04:19:12;;;;;;;;;10.33;10.33;;;;;12.19;100.00;100057.94;2089404;28;46295;-54
2023/12/08 04:20:13;;;;;;;;;11.25;9.50;;;;;12.21;100.00;100068.56;2089179;28;46695;-53
2023/12/08 04:21:17;;;;;;;;;13.67;10.00;;;;;12.20;100.00;100064.16;2086098;28;46488;-54
2023/12/08 04:22:18;;;;;;;;;10.75;9.25;;;;;12.19;100.00;100060.59;2089041;28;47879;-54
2023/12/08 04:23:18;;;;;;;;;7.67;7.67;;;;;12.19;100.00;100057.94;2089017;28;46579;-53
2023/12/08 04:24:18;;;;;;;;;9.00;7.33;;;;;12.18;100.00;100058.00;2089360;28;47010;-54
2023/12/08 04:25:19;;;;;;;;;7.33;7.33;;;;;12.19;100.00;100070.38;2089268;28;46416;-55
2023/12/08 04:26:24;;;;;;;;;10.00;8.67;;;;;12.19;100.00;100065.94;2089151;28;46607;-53
2023/12/08 04:27:25;;;;;;;;;10.00;9.50;;;;;12.19;100.00;100078.34;2089178;28;46394;-53
2023/12/08 04:28:25;;;;;;;;;8.00;7.33;;;;;12.19;100.00;100076.56;2089134;28;46294;-48
2023/12/08 04:29:25;;;;;;;;;9.33;8.00;;;;;12.21;100.00;100085.38;2088915;28;46200;-53
2023/12/08 04:30:26;;;;;;;;;9.33;8.00;;;;;12.20;100.00;100085.44;2089184;28;46153;-51
2023/12/08 04:31:26;;;;;;;;;9.00;7.00;;;;;12.20;100.00;100074.81;2088773;28;46893;-53
2023/12/08 04:32:26;;;;;;;;;9.67;6.33;;;;;12.19;100.00;100081.88;2088805;28;46590;-49
2023/12/08 04:33:27;;;;;;;;;8.33;8.00;;;;;12.20;100.00;100081.00;2088692;28;46166;-53
2023/12/08 04:34:27;;;;;;;;;8.00;8.00;;;;;12.21;100.00;100082.72;2088644;28;46452;-52
2023/12/08 04:35:27;;;;;;;;;8.33;7.00;;;;;12.22;100.00;100075.59;2089185;28;46939;-51
2023/12/08 04:36:28;;;;;;;;;9.67;9.00;;;;;12.23;100.00;100080.00;2087164;28;46583;-54
2023/12/08 04:37:28;;;;;;;;;8.33;8.00;;;;;12.24;100.00;100074.63;2085317;28;46419;-54